sensor_id;sensor_type;location;lat;lon;timestamp;P1;durP1;ratioP1;P2;durP2;ratioP2
63906;SDS011;50075;49.484;11.238;2023-04-28T00:02:22;128.05;;;9.60;;
63906;SDS011;50075;49.484;11.238;2023-04-28T00:04:48;105.13;;;8.32;;
63906;SDS011;50075;49.484;11.238;2023-04-28T00:07:13;89.13;;;7.87;;
63906;SDS011;50075;49.484;11.238;2023-04-28T00:09:38;134.10;;;9.93;;
63906;SDS011;50075;49.484;11.238;2023-04-28T00:12:04;98.57;;;8.53;;
63906;SDS011;50075;49.484;11.238;2023-04-28T00:14:29;116.85;;;9.18;;
63906;SDS011;50075;49.484;11.238;2023-04-28T00:16:54;100.05;;;8.38;;
63906;SDS011;50075;49.484;11.238;2023-04-28T00:19:22;94.88;;;8.02;;
63906;SDS011;50075;49.484;11.238;2023-04-28T00:21:47;109.88;;;8.77;;
63906;SDS011;50075;49.484;11.238;2023-04-28T00:24:12;120.37;;;9.47;;
63906;SDS011;50075;49.484;11.238;2023-04-28T00:26:38;76.33;;;7.43;;
63906;SDS011;50075;49.484;11.238;2023-04-28T00:29:03;121.72;;;9.05;;
63906;SDS011;50075;49.484;11.238;2023-04-28T00:31:28;88.73;;;7.67;;
63906;SDS011;50075;49.484;11.238;2023-04-28T00:33:54;187.05;;;11.85;;
63906;SDS011;50075;49.484;11.238;2023-04-28T00:36:19;129.10;;;9.38;;
63906;SDS011;50075;49.484;11.238;2023-04-28T00:38:44;108.45;;;8.70;;
63906;SDS011;50075;49.484;11.238;2023-04-28T00:41:09;110.25;;;9.23;;
63906;SDS011;50075;49.484;11.238;2023-04-28T00:43:47;119.45;;;9.82;;
63906;SDS011;50075;49.484;11.238;2023-04-28T00:46:17;103.57;;;9.65;;
63906;SDS011;50075;49.484;11.238;2023-04-28T00:48:43;98.75;;;8.95;;
63906;SDS011;50075;49.484;11.238;2023-04-28T00:51:09;123.77;;;9.37;;
63906;SDS011;50075;49.484;11.238;2023-04-28T00:53:34;129.88;;;9.95;;
63906;SDS011;50075;49.484;11.238;2023-04-28T00:55:59;147.27;;;10.85;;
63906;SDS011;50075;49.484;11.238;2023-04-28T00:58:25;114.28;;;9.40;;
63906;SDS011;50075;49.484;11.238;2023-04-28T01:00:50;122.93;;;9.52;;
63906;SDS011;50075;49.484;11.238;2023-04-28T01:03:15;100.80;;;8.43;;
63906;SDS011;50075;49.484;11.238;2023-04-28T01:05:40;120.63;;;9.17;;
63906;SDS011;50075;49.484;11.238;2023-04-28T01:08:06;99.22;;;8.55;;
63906;SDS011;50075;49.484;11.238;2023-04-28T01:10:31;130.70;;;8.80;;
63906;SDS011;50075;49.484;11.238;2023-04-28T01:12:56;151.45;;;10.40;;
63906;SDS011;50075;49.484;11.238;2023-04-28T01:15:22;104.70;;;8.77;;
63906;SDS011;50075;49.484;11.238;2023-04-28T01:17:47;96.68;;;8.70;;
63906;SDS011;50075;49.484;11.238;2023-04-28T01:20:13;131.60;;;10.02;;
63906;SDS011;50075;49.484;11.238;2023-04-28T01:22:39;109.72;;;9.05;;
63906;SDS011;50075;49.484;11.238;2023-04-28T01:25:04;137.73;;;10.02;;
63906;SDS011;50075;49.484;11.238;2023-04-28T01:27:29;112.28;;;9.05;;
63906;SDS011;50075;49.484;11.238;2023-04-28T01:29:55;93.53;;;8.80;;
63906;SDS011;50075;49.484;11.238;2023-04-28T01:32:22;144.88;;;10.68;;
63906;SDS011;50075;49.484;11.238;2023-04-28T01:34:47;109.45;;;9.13;;
63906;SDS011;50075;49.484;11.238;2023-04-28T01:37:12;106.43;;;8.57;;
63906;SDS011;50075;49.484;11.238;2023-04-28T01:39:37;122.67;;;9.47;;
63906;SDS011;50075;49.484;11.238;2023-04-28T01:42:03;115.28;;;9.30;;
63906;SDS011;50075;49.484;11.238;2023-04-28T01:44:28;122.95;;;9.40;;
63906;SDS011;50075;49.484;11.238;2023-04-28T01:46:53;123.63;;;8.83;;
63906;SDS011;50075;49.484;11.238;2023-04-28T01:49:18;118.30;;;9.20;;
63906;SDS011;50075;49.484;11.238;2023-04-28T01:51:44;92.22;;;8.15;;
63906;SDS011;50075;49.484;11.238;2023-04-28T01:54:09;121.23;;;9.30;;
63906;SDS011;50075;49.484;11.238;2023-04-28T01:56:34;104.63;;;8.52;;
63906;SDS011;50075;49.484;11.238;2023-04-28T01:59:00;122.03;;;9.15;;
63906;SDS011;50075;49.484;11.238;2023-04-28T02:01:25;107.70;;;8.35;;
63906;SDS011;50075;49.484;11.238;2023-04-28T02:03:51;154.33;;;10.57;;
63906;SDS011;50075;49.484;11.238;2023-04-28T02:06:16;115.13;;;9.30;;
63906;SDS011;50075;49.484;11.238;2023-04-28T02:08:41;111.70;;;8.93;;
63906;SDS011;50075;49.484;11.238;2023-04-28T02:11:07;125.37;;;9.77;;
63906;SDS011;50075;49.484;11.238;2023-04-28T02:13:32;111.93;;;9.43;;
63906;SDS011;50075;49.484;11.238;2023-04-28T02:16:00;139.57;;;11.13;;
63906;SDS011;50075;49.484;11.238;2023-04-28T02:18:26;111.30;;;9.75;;
63906;SDS011;50075;49.484;11.238;2023-04-28T02:20:51;104.63;;;8.98;;
63906;SDS011;50075;49.484;11.238;2023-04-28T02:23:16;96.68;;;9.13;;
63906;SDS011;50075;49.484;11.238;2023-04-28T02:25:42;114.45;;;9.20;;
63906;SDS011;50075;49.484;11.238;2023-04-28T02:28:07;120.80;;;9.67;;
63906;SDS011;50075;49.484;11.238;2023-04-28T02:30:32;139.60;;;10.00;;
63906;SDS011;50075;49.484;11.238;2023-04-28T02:32:57;111.07;;;9.10;;
63906;SDS011;50075;49.484;11.238;2023-04-28T02:35:23;106.15;;;8.85;;
63906;SDS011;50075;49.484;11.238;2023-04-28T02:37:48;119.07;;;9.40;;
63906;SDS011;50075;49.484;11.238;2023-04-28T02:40:13;113.28;;;9.23;;
63906;SDS011;50075;49.484;11.238;2023-04-28T02:42:38;114.10;;;9.10;;
63906;SDS011;50075;49.484;11.238;2023-04-28T02:45:04;121.43;;;9.23;;
63906;SDS011;50075;49.484;11.238;2023-04-28T02:47:29;100.25;;;8.88;;
63906;SDS011;50075;49.484;11.238;2023-04-28T02:49:55;99.07;;;8.80;;
63906;SDS011;50075;49.484;11.238;2023-04-28T02:52:20;123.97;;;9.23;;
63906;SDS011;50075;49.484;11.238;2023-04-28T02:54:45;94.10;;;8.75;;
63906;SDS011;50075;49.484;11.238;2023-04-28T02:57:12;119.70;;;8.98;;
63906;SDS011;50075;49.484;11.238;2023-04-28T02:59:38;95.45;;;8.82;;
63906;SDS011;50075;49.484;11.238;2023-04-28T03:02:03;113.43;;;9.13;;
63906;SDS011;50075;49.484;11.238;2023-04-28T03:04:28;129.52;;;9.60;;
63906;SDS011;50075;49.484;11.238;2023-04-28T03:06:53;108.93;;;8.90;;
63906;SDS011;50075;49.484;11.238;2023-04-28T03:09:19;91.47;;;8.77;;
63906;SDS011;50075;49.484;11.238;2023-04-28T03:11:44;104.40;;;8.60;;
63906;SDS011;50075;49.484;11.238;2023-04-28T03:14:10;104.10;;;8.60;;
63906;SDS011;50075;49.484;11.238;2023-04-28T03:16:35;118.25;;;9.23;;
63906;SDS011;50075;49.484;11.238;2023-04-28T03:19:01;108.05;;;8.80;;
63906;SDS011;50075;49.484;11.238;2023-04-28T03:21:27;103.78;;;8.73;;
63906;SDS011;50075;49.484;11.238;2023-04-28T03:23:53;154.43;;;10.32;;
63906;SDS011;50075;49.484;11.238;2023-04-28T03:26:18;82.15;;;7.90;;
63906;SDS011;50075;49.484;11.238;2023-04-28T03:28:43;117.63;;;9.13;;
63906;SDS011;50075;49.484;11.238;2023-04-28T03:31:08;104.40;;;8.93;;
63906;SDS011;50075;49.484;11.238;2023-04-28T03:33:34;114.47;;;9.10;;
63906;SDS011;50075;49.484;11.238;2023-04-28T03:35:59;117.73;;;9.50;;
63906;SDS011;50075;49.484;11.238;2023-04-28T03:38:24;101.25;;;8.32;;
63906;SDS011;50075;49.484;11.238;2023-04-28T03:40:50;84.20;;;8.00;;
63906;SDS011;50075;49.484;11.238;2023-04-28T03:43:15;113.95;;;9.35;;
63906;SDS011;50075;49.484;11.238;2023-04-28T03:45:41;103.18;;;8.38;;
63906;SDS011;50075;49.484;11.238;2023-04-28T03:48:06;112.85;;;9.00;;
63906;SDS011;50075;49.484;11.238;2023-04-28T03:50:31;109.15;;;9.00;;
63906;SDS011;50075;49.484;11.238;2023-04-28T03:52:57;102.20;;;8.67;;
63906;SDS011;50075;49.484;11.238;2023-04-28T03:55:22;121.93;;;9.20;;
63906;SDS011;50075;49.484;11.238;2023-04-28T03:57:47;94.35;;;7.93;;
63906;SDS011;50075;49.484;11.238;2023-04-28T04:00:13;102.93;;;9.00;;
63906;SDS011;50075;49.484;11.238;2023-04-28T04:02:38;135.95;;;10.00;;
63906;SDS011;50075;49.484;11.238;2023-04-28T04:05:03;113.57;;;9.38;;
63906;SDS011;50075;49.484;11.238;2023-04-28T04:07:29;96.85;;;8.65;;
63906;SDS011;50075;49.484;11.238;2023-04-28T04:09:54;104.65;;;8.73;;
63906;SDS011;50075;49.484;11.238;2023-04-28T04:12:19;135.05;;;9.60;;
63906;SDS011;50075;49.484;11.238;2023-04-28T04:14:45;337.67;;;17.93;;
63906;SDS011;50075;49.484;11.238;2023-04-28T04:17:10;97.93;;;8.63;;
63906;SDS011;50075;49.484;11.238;2023-04-28T04:19:35;89.65;;;8.50;;
63906;SDS011;50075;49.484;11.238;2023-04-28T04:22:00;113.67;;;9.37;;
63906;SDS011;50075;49.484;11.238;2023-04-28T04:24:26;84.60;;;8.40;;
63906;SDS011;50075;49.484;11.238;2023-04-28T04:26:51;85.22;;;8.55;;
63906;SDS011;50075;49.484;11.238;2023-04-28T04:29:16;115.13;;;8.82;;
63906;SDS011;50075;49.484;11.238;2023-04-28T04:31:41;104.45;;;9.07;;
63906;SDS011;50075;49.484;11.238;2023-04-28T04:34:09;92.68;;;8.43;;
63906;SDS011;50075;49.484;11.238;2023-04-28T04:36:35;79.35;;;7.93;;
63906;SDS011;50075;49.484;11.238;2023-04-28T04:39:00;83.68;;;7.65;;
63906;SDS011;50075;49.484;11.238;2023-04-28T04:41:25;104.10;;;9.15;;
63906;SDS011;50075;49.484;11.238;2023-04-28T04:43:51;149.38;;;10.82;;
63906;SDS011;50075;49.484;11.238;2023-04-28T04:46:16;82.00;;;7.90;;
63906;SDS011;50075;49.484;11.238;2023-04-28T04:48:41;103.60;;;9.00;;
63906;SDS011;50075;49.484;11.238;2023-04-28T04:51:07;100.03;;;8.88;;
63906;SDS011;50075;49.484;11.238;2023-04-28T04:53:32;93.97;;;8.80;;
63906;SDS011;50075;49.484;11.238;2023-04-28T04:55:57;98.10;;;8.87;;
63906;SDS011;50075;49.484;11.238;2023-04-28T04:58:23;91.35;;;9.45;;
63906;SDS011;50075;49.484;11.238;2023-04-28T05:00:48;112.65;;;10.40;;
63906;SDS011;50075;49.484;11.238;2023-04-28T05:03:13;111.30;;;10.47;;
63906;SDS011;50075;49.484;11.238;2023-04-28T05:05:39;91.88;;;9.55;;
63906;SDS011;50075;49.484;11.238;2023-04-28T05:08:04;107.60;;;9.90;;
63906;SDS011;50075;49.484;11.238;2023-04-28T05:10:30;96.28;;;9.38;;
63906;SDS011;50075;49.484;11.238;2023-04-28T05:12:55;92.65;;;8.85;;
63906;SDS011;50075;49.484;11.238;2023-04-28T05:15:20;99.35;;;9.00;;
63906;SDS011;50075;49.484;11.238;2023-04-28T05:17:46;114.40;;;9.85;;
63906;SDS011;50075;49.484;11.238;2023-04-28T05:20:11;112.53;;;10.25;;
63906;SDS011;50075;49.484;11.238;2023-04-28T05:22:36;86.88;;;8.52;;
63906;SDS011;50075;49.484;11.238;2023-04-28T05:25:01;90.80;;;8.82;;
63906;SDS011;50075;49.484;11.238;2023-04-28T05:27:27;114.37;;;9.17;;
63906;SDS011;50075;49.484;11.238;2023-04-28T05:29:52;99.57;;;8.48;;
63906;SDS011;50075;49.484;11.238;2023-04-28T05:32:17;109.68;;;9.10;;
63906;SDS011;50075;49.484;11.238;2023-04-28T05:34:42;114.60;;;9.67;;
63906;SDS011;50075;49.484;11.238;2023-04-28T05:37:07;102.30;;;8.83;;
63906;SDS011;50075;49.484;11.238;2023-04-28T05:39:33;90.57;;;9.10;;
63906;SDS011;50075;49.484;11.238;2023-04-28T05:41:58;82.17;;;8.47;;
63906;SDS011;50075;49.484;11.238;2023-04-28T05:44:23;99.82;;;9.02;;
63906;SDS011;50075;49.484;11.238;2023-04-28T05:46:48;116.88;;;8.70;;
63906;SDS011;50075;49.484;11.238;2023-04-28T05:49:14;112.57;;;9.73;;
63906;SDS011;50075;49.484;11.238;2023-04-28T05:51:39;95.95;;;9.30;;
63906;SDS011;50075;49.484;11.238;2023-04-28T05:54:05;129.50;;;10.27;;
63906;SDS011;50075;49.484;11.238;2023-04-28T05:56:30;91.85;;;8.43;;
63906;SDS011;50075;49.484;11.238;2023-04-28T05:58:56;93.25;;;9.30;;
63906;SDS011;50075;49.484;11.238;2023-04-28T06:01:22;78.55;;;8.38;;
63906;SDS011;50075;49.484;11.238;2023-04-28T06:03:47;147.33;;;11.40;;
63906;SDS011;50075;49.484;11.238;2023-04-28T06:06:13;107.50;;;10.95;;
63906;SDS011;50075;49.484;11.238;2023-04-28T06:08:38;91.13;;;10.35;;
63906;SDS011;50075;49.484;11.238;2023-04-28T06:11:04;95.03;;;10.52;;
63906;SDS011;50075;49.484;11.238;2023-04-28T06:13:29;111.93;;;11.65;;
63906;SDS011;50075;49.484;11.238;2023-04-28T06:15:54;93.67;;;10.93;;
63906;SDS011;50075;49.484;11.238;2023-04-28T06:18:20;97.47;;;10.40;;
63906;SDS011;50075;49.484;11.238;2023-04-28T06:20:45;95.03;;;9.55;;
63906;SDS011;50075;49.484;11.238;2023-04-28T06:23:10;87.88;;;9.25;;
63906;SDS011;50075;49.484;11.238;2023-04-28T06:25:35;113.75;;;9.50;;
63906;SDS011;50075;49.484;11.238;2023-04-28T06:28:01;91.53;;;9.33;;
63906;SDS011;50075;49.484;11.238;2023-04-28T06:30:26;89.30;;;9.02;;
63906;SDS011;50075;49.484;11.238;2023-04-28T06:32:51;121.82;;;11.25;;
63906;SDS011;50075;49.484;11.238;2023-04-28T06:35:17;106.53;;;9.98;;
63906;SDS011;50075;49.484;11.238;2023-04-28T06:37:42;104.45;;;10.38;;
63906;SDS011;50075;49.484;11.238;2023-04-28T06:40:08;118.43;;;12.70;;
63906;SDS011;50075;49.484;11.238;2023-04-28T06:42:33;101.00;;;10.35;;
63906;SDS011;50075;49.484;11.238;2023-04-28T06:44:59;105.65;;;11.93;;
63906;SDS011;50075;49.484;11.238;2023-04-28T06:47:24;96.15;;;10.82;;
63906;SDS011;50075;49.484;11.238;2023-04-28T06:49:50;119.75;;;11.98;;
63906;SDS011;50075;49.484;11.238;2023-04-28T06:52:15;153.52;;;13.65;;
63906;SDS011;50075;49.484;11.238;2023-04-28T06:54:41;105.72;;;11.93;;
63906;SDS011;50075;49.484;11.238;2023-04-28T06:57:06;101.32;;;11.60;;
63906;SDS011;50075;49.484;11.238;2023-04-28T06:59:31;113.97;;;11.97;;
63906;SDS011;50075;49.484;11.238;2023-04-28T07:01:56;79.78;;;10.27;;
63906;SDS011;50075;49.484;11.238;2023-04-28T07:04:22;115.45;;;13.43;;
63906;SDS011;50075;49.484;11.238;2023-04-28T07:06:47;94.30;;;11.93;;
63906;SDS011;50075;49.484;11.238;2023-04-28T07:09:12;95.03;;;11.20;;
63906;SDS011;50075;49.484;11.238;2023-04-28T07:11:37;113.00;;;10.45;;
63906;SDS011;50075;49.484;11.238;2023-04-28T07:14:03;114.22;;;12.13;;
63906;SDS011;50075;49.484;11.238;2023-04-28T07:16:28;90.30;;;12.50;;
63906;SDS011;50075;49.484;11.238;2023-04-28T07:18:53;125.53;;;13.32;;
63906;SDS011;50075;49.484;11.238;2023-04-28T07:21:18;99.90;;;11.73;;
63906;SDS011;50075;49.484;11.238;2023-04-28T07:23:45;142.73;;;13.75;;
63906;SDS011;50075;49.484;11.238;2023-04-28T07:26:11;102.93;;;11.20;;
63906;SDS011;50075;49.484;11.238;2023-04-28T07:28:36;105.45;;;12.90;;
63906;SDS011;50075;49.484;11.238;2023-04-28T07:31:01;112.13;;;11.80;;
63906;SDS011;50075;49.484;11.238;2023-04-28T07:33:26;94.32;;;12.82;;
63906;SDS011;50075;49.484;11.238;2023-04-28T07:35:52;84.68;;;11.80;;
63906;SDS011;50075;49.484;11.238;2023-04-28T07:38:17;126.53;;;12.95;;
63906;SDS011;50075;49.484;11.238;2023-04-28T07:40:44;94.10;;;12.00;;
63906;SDS011;50075;49.484;11.238;2023-04-28T07:43:09;101.60;;;12.85;;
63906;SDS011;50075;49.484;11.238;2023-04-28T07:45:38;114.75;;;13.38;;
63906;SDS011;50075;49.484;11.238;2023-04-28T07:48:03;101.07;;;12.20;;
63906;SDS011;50075;49.484;11.238;2023-04-28T07:50:29;134.70;;;13.00;;
63906;SDS011;50075;49.484;11.238;2023-04-28T07:52:54;106.50;;;11.02;;
63906;SDS011;50075;49.484;11.238;2023-04-28T07:55:19;110.77;;;11.40;;
63906;SDS011;50075;49.484;11.238;2023-04-28T07:57:45;130.80;;;13.02;;
63906;SDS011;50075;49.484;11.238;2023-04-28T08:00:10;111.22;;;12.98;;
63906;SDS011;50075;49.484;11.238;2023-04-28T08:02:36;87.05;;;11.63;;
63906;SDS011;50075;49.484;11.238;2023-04-28T08:05:01;104.40;;;9.57;;
63906;SDS011;50075;49.484;11.238;2023-04-28T08:07:27;107.13;;;12.27;;
63906;SDS011;50075;49.484;11.238;2023-04-28T08:09:52;105.38;;;12.98;;
63906;SDS011;50075;49.484;11.238;2023-04-28T08:12:17;140.27;;;13.30;;
63906;SDS011;50075;49.484;11.238;2023-04-28T08:14:43;74.23;;;11.00;;
63906;SDS011;50075;49.484;11.238;2023-04-28T08:17:08;107.93;;;12.03;;
63906;SDS011;50075;49.484;11.238;2023-04-28T08:19:33;98.28;;;12.13;;
63906;SDS011;50075;49.484;11.238;2023-04-28T08:21:59;94.07;;;12.80;;
63906;SDS011;50075;49.484;11.238;2023-04-28T08:24:29;107.57;;;12.98;;
63906;SDS011;50075;49.484;11.238;2023-04-28T08:26:58;78.78;;;12.57;;
63906;SDS011;50075;49.484;11.238;2023-04-28T08:29:24;115.43;;;13.05;;
63906;SDS011;50075;49.484;11.238;2023-04-28T08:31:50;87.05;;;13.07;;
63906;SDS011;50075;49.484;11.238;2023-04-28T08:34:15;112.70;;;13.45;;
63906;SDS011;50075;49.484;11.238;2023-04-28T08:36:40;107.57;;;12.50;;
63906;SDS011;50075;49.484;11.238;2023-04-28T08:39:05;102.75;;;14.60;;
63906;SDS011;50075;49.484;11.238;2023-04-28T08:41:32;101.57;;;15.32;;
63906;SDS011;50075;49.484;11.238;2023-04-28T08:43:58;110.30;;;15.57;;
63906;SDS011;50075;49.484;11.238;2023-04-28T08:46:23;105.68;;;13.50;;
63906;SDS011;50075;49.484;11.238;2023-04-28T08:48:50;110.05;;;13.95;;
63906;SDS011;50075;49.484;11.238;2023-04-28T08:51:29;99.38;;;11.25;;
63906;SDS011;50075;49.484;11.238;2023-04-28T08:53:57;125.53;;;10.52;;
63906;SDS011;50075;49.484;11.238;2023-04-28T08:56:23;112.35;;;14.68;;
63906;SDS011;50075;49.484;11.238;2023-04-28T08:58:50;97.53;;;13.88;;
63906;SDS011;50075;49.484;11.238;2023-04-28T09:01:15;122.75;;;14.30;;
63906;SDS011;50075;49.484;11.238;2023-04-28T09:03:41;166.80;;;18.30;;
63906;SDS011;50075;49.484;11.238;2023-04-28T09:06:07;134.23;;;14.50;;
63906;SDS011;50075;49.484;11.238;2023-04-28T09:08:32;98.67;;;11.97;;
63906;SDS011;50075;49.484;11.238;2023-04-28T09:11:04;104.17;;;11.73;;
63906;SDS011;50075;49.484;11.238;2023-04-28T09:13:30;88.30;;;11.68;;
63906;SDS011;50075;49.484;11.238;2023-04-28T09:16:00;97.35;;;12.20;;
63906;SDS011;50075;49.484;11.238;2023-04-28T09:18:27;116.35;;;12.98;;
63906;SDS011;50075;49.484;11.238;2023-04-28T09:21:01;88.78;;;12.48;;
63906;SDS011;50075;49.484;11.238;2023-04-28T09:23:26;100.32;;;12.43;;
63906;SDS011;50075;49.484;11.238;2023-04-28T09:28:20;111.40;;;12.40;;
63906;SDS011;50075;49.484;11.238;2023-04-28T09:30:46;121.55;;;13.68;;
63906;SDS011;50075;49.484;11.238;2023-04-28T09:33:11;115.30;;;11.80;;
63906;SDS011;50075;49.484;11.238;2023-04-28T09:35:43;114.90;;;12.53;;
63906;SDS011;50075;49.484;11.238;2023-04-28T09:38:12;88.93;;;12.43;;
63906;SDS011;50075;49.484;11.238;2023-04-28T09:40:57;103.90;;;13.52;;
63906;SDS011;50075;49.484;11.238;2023-04-28T09:43:23;115.50;;;13.50;;
63906;SDS011;50075;49.484;11.238;2023-04-28T09:45:48;96.43;;;12.23;;
63906;SDS011;50075;49.484;11.238;2023-04-28T09:48:13;113.13;;;12.60;;
63906;SDS011;50075;49.484;11.238;2023-04-28T09:50:39;121.47;;;12.13;;
63906;SDS011;50075;49.484;11.238;2023-04-28T09:53:05;117.40;;;11.77;;
63906;SDS011;50075;49.484;11.238;2023-04-28T09:55:31;92.80;;;12.18;;
63906;SDS011;50075;49.484;11.238;2023-04-28T09:58:00;110.82;;;11.50;;
63906;SDS011;50075;49.484;11.238;2023-04-28T10:00:29;117.75;;;13.48;;
63906;SDS011;50075;49.484;11.238;2023-04-28T10:02:55;112.95;;;14.05;;
63906;SDS011;50075;49.484;11.238;2023-04-28T10:05:21;117.20;;;14.55;;
63906;SDS011;50075;49.484;11.238;2023-04-28T10:07:46;103.45;;;12.60;;
63906;SDS011;50075;49.484;11.238;2023-04-28T10:10:11;114.93;;;15.85;;
63906;SDS011;50075;49.484;11.238;2023-04-28T10:12:38;98.20;;;13.65;;
63906;SDS011;50075;49.484;11.238;2023-04-28T10:15:04;122.90;;;13.90;;
63906;SDS011;50075;49.484;11.238;2023-04-28T10:17:29;93.65;;;12.23;;
63906;SDS011;50075;49.484;11.238;2023-04-28T10:19:55;147.43;;;16.98;;
63906;SDS011;50075;49.484;11.238;2023-04-28T10:27:27;88.25;;;12.70;;
63906;SDS011;50075;49.484;11.238;2023-04-28T10:29:53;101.10;;;9.10;;
63906;SDS011;50075;49.484;11.238;2023-04-28T10:32:22;124.87;;;11.57;;
63906;SDS011;50075;49.484;11.238;2023-04-28T10:34:50;105.43;;;13.98;;
63906;SDS011;50075;49.484;11.238;2023-04-28T10:37:15;120.57;;;13.52;;
63906;SDS011;50075;49.484;11.238;2023-04-28T10:45:10;87.15;;;12.10;;
63906;SDS011;50075;49.484;11.238;2023-04-28T10:50:20;109.40;;;12.32;;
63906;SDS011;50075;49.484;11.238;2023-04-28T11:00:40;101.07;;;11.07;;
63906;SDS011;50075;49.484;11.238;2023-04-28T11:03:06;84.63;;;10.32;;
63906;SDS011;50075;49.484;11.238;2023-04-28T11:05:31;96.55;;;11.00;;
63906;SDS011;50075;49.484;11.238;2023-04-28T11:13:29;93.35;;;10.45;;
63906;SDS011;50075;49.484;11.238;2023-04-28T11:16:04;97.63;;;9.98;;
63906;SDS011;50075;49.484;11.238;2023-04-28T11:18:52;85.90;;;7.75;;
63906;SDS011;50075;49.484;11.238;2023-04-28T11:21:16;113.13;;;11.55;;
63906;SDS011;50075;49.484;11.238;2023-04-28T11:23:41;157.27;;;12.90;;
63906;SDS011;50075;49.484;11.238;2023-04-28T11:26:07;97.30;;;9.82;;
63906;SDS011;50075;49.484;11.238;2023-04-28T11:28:32;91.20;;;9.88;;
63906;SDS011;50075;49.484;11.238;2023-04-28T11:31:10;76.53;;;9.80;;
63906;SDS011;50075;49.484;11.238;2023-04-28T11:33:35;94.03;;;9.75;;
63906;SDS011;50075;49.484;11.238;2023-04-28T11:36:02;72.72;;;9.98;;
63906;SDS011;50075;49.484;11.238;2023-04-28T11:38:27;94.00;;;10.90;;
63906;SDS011;50075;49.484;11.238;2023-04-28T11:40:56;92.72;;;11.10;;
63906;SDS011;50075;49.484;11.238;2023-04-28T11:43:30;78.95;;;8.65;;
63906;SDS011;50075;49.484;11.238;2023-04-28T11:45:56;94.65;;;10.15;;
63906;SDS011;50075;49.484;11.238;2023-04-28T11:48:21;88.22;;;9.10;;
63906;SDS011;50075;49.484;11.238;2023-04-28T11:50:46;107.43;;;10.32;;
63906;SDS011;50075;49.484;11.238;2023-04-28T11:53:11;87.90;;;9.93;;
63906;SDS011;50075;49.484;11.238;2023-04-28T11:55:37;89.77;;;10.33;;
63906;SDS011;50075;49.484;11.238;2023-04-28T11:58:20;98.50;;;10.90;;
63906;SDS011;50075;49.484;11.238;2023-04-28T12:03:31;71.95;;;9.48;;
63906;SDS011;50075;49.484;11.238;2023-04-28T12:05:57;82.15;;;9.35;;
63906;SDS011;50075;49.484;11.238;2023-04-28T12:08:29;96.68;;;10.85;;
63906;SDS011;50075;49.484;11.238;2023-04-28T12:11:10;82.88;;;10.45;;
63906;SDS011;50075;49.484;11.238;2023-04-28T12:13:35;101.60;;;11.30;;
63906;SDS011;50075;49.484;11.238;2023-04-28T12:16:02;72.05;;;9.43;;
63906;SDS011;50075;49.484;11.238;2023-04-28T12:18:30;102.07;;;11.10;;
63906;SDS011;50075;49.484;11.238;2023-04-28T12:20:55;75.50;;;9.48;;
63906;SDS011;50075;49.484;11.238;2023-04-28T12:23:33;106.10;;;11.18;;
63906;SDS011;50075;49.484;11.238;2023-04-28T12:25:59;85.88;;;9.95;;
63906;SDS011;50075;49.484;11.238;2023-04-28T12:28:40;95.22;;;11.38;;
63906;SDS011;50075;49.484;11.238;2023-04-28T12:31:06;100.45;;;11.02;;
63906;SDS011;50075;49.484;11.238;2023-04-28T12:33:35;98.18;;;10.48;;
63906;SDS011;50075;49.484;11.238;2023-04-28T12:36:04;88.55;;;10.30;;
63906;SDS011;50075;49.484;11.238;2023-04-28T12:38:30;102.97;;;10.88;;
63906;SDS011;50075;49.484;11.238;2023-04-28T12:40:56;104.40;;;11.07;;
63906;SDS011;50075;49.484;11.238;2023-04-28T12:43:21;81.88;;;10.35;;
63906;SDS011;50075;49.484;11.238;2023-04-28T12:45:48;106.40;;;10.35;;
63906;SDS011;50075;49.484;11.238;2023-04-28T12:48:13;75.65;;;10.20;;
63906;SDS011;50075;49.484;11.238;2023-04-28T12:50:39;89.75;;;11.00;;
63906;SDS011;50075;49.484;11.238;2023-04-28T12:53:04;108.10;;;11.90;;
63906;SDS011;50075;49.484;11.238;2023-04-28T12:55:30;85.97;;;10.38;;
63906;SDS011;50075;49.484;11.238;2023-04-28T12:57:55;71.30;;;9.98;;
63906;SDS011;50075;49.484;11.238;2023-04-28T13:00:20;103.45;;;11.07;;
63906;SDS011;50075;49.484;11.238;2023-04-28T13:02:49;90.70;;;10.23;;
63906;SDS011;50075;49.484;11.238;2023-04-28T13:05:14;95.78;;;10.63;;
63906;SDS011;50075;49.484;11.238;2023-04-28T13:07:40;85.10;;;10.32;;
63906;SDS011;50075;49.484;11.238;2023-04-28T13:10:05;77.55;;;9.65;;
63906;SDS011;50075;49.484;11.238;2023-04-28T13:12:31;100.28;;;10.52;;
63906;SDS011;50075;49.484;11.238;2023-04-28T13:14:57;84.32;;;10.57;;
63906;SDS011;50075;49.484;11.238;2023-04-28T13:17:23;83.88;;;9.45;;
63906;SDS011;50075;49.484;11.238;2023-04-28T13:19:48;106.18;;;10.55;;
63906;SDS011;50075;49.484;11.238;2023-04-28T13:22:13;80.13;;;9.75;;
63906;SDS011;50075;49.484;11.238;2023-04-28T13:24:39;95.97;;;10.38;;
63906;SDS011;50075;49.484;11.238;2023-04-28T13:27:05;60.55;;;7.93;;
63906;SDS011;50075;49.484;11.238;2023-04-28T13:29:33;83.95;;;8.75;;
63906;SDS011;50075;49.484;11.238;2023-04-28T13:31:58;93.97;;;9.88;;
63906;SDS011;50075;49.484;11.238;2023-04-28T13:34:24;82.28;;;8.88;;
63906;SDS011;50075;49.484;11.238;2023-04-28T13:36:50;81.32;;;8.88;;
63906;SDS011;50075;49.484;11.238;2023-04-28T13:39:17;88.95;;;9.32;;
63906;SDS011;50075;49.484;11.238;2023-04-28T13:41:44;92.20;;;8.05;;
63906;SDS011;50075;49.484;11.238;2023-04-28T13:44:09;101.18;;;10.43;;
63906;SDS011;50075;49.484;11.238;2023-04-28T13:46:34;70.82;;;8.48;;
63906;SDS011;50075;49.484;11.238;2023-04-28T13:48:59;114.10;;;11.07;;
63906;SDS011;50075;49.484;11.238;2023-04-28T13:51:25;111.55;;;9.30;;
63906;SDS011;50075;49.484;11.238;2023-04-28T13:53:52;130.10;;;11.20;;
63906;SDS011;50075;49.484;11.238;2023-04-28T13:56:17;118.03;;;10.23;;
63906;SDS011;50075;49.484;11.238;2023-04-28T13:58:43;117.23;;;9.43;;
63906;SDS011;50075;49.484;11.238;2023-04-28T14:01:08;145.63;;;10.13;;
63906;SDS011;50075;49.484;11.238;2023-04-28T14:03:33;128.10;;;9.63;;
63906;SDS011;50075;49.484;11.238;2023-04-28T14:05:59;131.27;;;8.80;;
63906;SDS011;50075;49.484;11.238;2023-04-28T14:08:25;129.15;;;9.45;;
63906;SDS011;50075;49.484;11.238;2023-04-28T14:10:51;130.35;;;9.40;;
63906;SDS011;50075;49.484;11.238;2023-04-28T14:13:17;114.65;;;8.73;;
63906;SDS011;50075;49.484;11.238;2023-04-28T14:15:42;88.43;;;8.10;;
63906;SDS011;50075;49.484;11.238;2023-04-28T14:18:09;118.18;;;9.27;;
63906;SDS011;50075;49.484;11.238;2023-04-28T14:20:35;91.43;;;8.30;;
63906;SDS011;50075;49.484;11.238;2023-04-28T14:23:00;96.43;;;8.15;;
63906;SDS011;50075;49.484;11.238;2023-04-28T14:25:25;80.03;;;7.28;;
63906;SDS011;50075;49.484;11.238;2023-04-28T14:27:51;94.28;;;8.30;;
63906;SDS011;50075;49.484;11.238;2023-04-28T14:30:17;132.02;;;10.25;;
63906;SDS011;50075;49.484;11.238;2023-04-28T14:32:42;129.13;;;9.07;;
63906;SDS011;50075;49.484;11.238;2023-04-28T14:35:07;173.30;;;11.87;;